createdAt,value
2023-06-17T00:00:56.884Z,94.40
2023-06-17T00:03:24.069Z,94.40
2023-06-17T00:05:52.928Z,94.40
2023-06-17T00:08:21.652Z,94.40
2023-06-17T00:10:49.440Z,94.50
2023-06-17T00:13:22.627Z,94.60
2023-06-17T00:15:57.900Z,94.60
2023-06-17T00:18:26.226Z,94.70
2023-06-17T00:20:54.346Z,94.60
2023-06-17T00:23:22.012Z,94.60
2023-06-17T00:25:49.879Z,94.60
2023-06-17T00:28:17.375Z,94.80
2023-06-17T00:30:49.978Z,94.60
2023-06-17T00:33:16.899Z,94.60
2023-06-17T00:35:43.980Z,94.60
2023-06-17T00:38:11.037Z,94.60
2023-06-17T00:40:38.150Z,94.70
2023-06-17T00:43:05.441Z,94.80
2023-06-17T00:45:39.839Z,94.90
2023-06-17T00:48:08.997Z,94.90
2023-06-17T00:50:37.552Z,94.90
2023-06-17T00:53:05.402Z,94.90
2023-06-17T00:55:33.609Z,94.90
2023-06-17T00:58:01.887Z,94.80
2023-06-17T01:00:29.310Z,94.90
2023-06-17T01:02:57.902Z,95.00
2023-06-17T01:05:25.538Z,95.10
2023-06-17T01:08:20.891Z,95.00
2023-06-17T01:11:00.910Z,95.00
2023-06-17T01:13:29.337Z,95.00
2023-06-17T01:15:58.242Z,95.30
2023-06-17T01:18:29.483Z,95.00
2023-06-17T01:20:56.946Z,95.00
2023-06-17T01:23:32.724Z,95.00
2023-06-17T01:26:02.501Z,95.10
2023-06-17T01:28:30.545Z,95.00
2023-06-17T01:30:58.454Z,95.10
2023-06-17T01:33:26.568Z,95.10
2023-06-17T01:36:02.581Z,95.20
2023-06-17T01:38:43.166Z,95.30
2023-06-17T01:41:29.001Z,95.30
2023-06-17T01:43:57.548Z,95.30
2023-06-17T01:46:28.497Z,95.30
2023-06-17T01:48:56.203Z,95.20
2023-06-17T01:51:23.800Z,95.20
2023-06-17T01:53:51.784Z,95.30
2023-06-17T01:56:21.181Z,95.30
2023-06-17T01:58:48.085Z,95.40
2023-06-17T02:01:15.426Z,95.40
2023-06-17T02:03:43.627Z,95.30
2023-06-17T02:06:10.622Z,95.30
2023-06-17T02:08:38.484Z,95.30
2023-06-17T02:11:05.427Z,95.30
2023-06-17T02:13:32.305Z,95.40
2023-06-17T02:15:59.188Z,95.50
2023-06-17T02:18:26.533Z,95.60
2023-06-17T02:20:53.858Z,95.50
2023-06-17T02:23:21.150Z,95.50
2023-06-17T02:25:47.898Z,95.60
2023-06-17T02:28:14.972Z,95.60
2023-06-17T02:30:41.763Z,95.70
2023-06-17T02:33:08.600Z,95.70
2023-06-17T02:35:36.245Z,95.70
2023-06-17T02:38:03.796Z,95.70
2023-06-17T02:40:30.896Z,95.60
2023-06-17T02:42:57.721Z,95.70
2023-06-17T02:45:24.649Z,95.80
2023-06-17T02:47:52.123Z,95.70
2023-06-17T02:50:23.032Z,95.80
2023-06-17T02:52:57.475Z,95.80
2023-06-17T02:55:26.806Z,95.80
2023-06-17T02:57:54.241Z,95.80
2023-06-17T03:00:22.091Z,95.70
2023-06-17T03:02:50.177Z,95.80
2023-06-17T03:05:18.096Z,95.80
2023-06-17T03:07:46.950Z,95.80
2023-06-17T03:10:13.924Z,95.90
2023-06-17T03:12:41.037Z,95.90
2023-06-17T03:15:09.540Z,95.90
2023-06-17T03:17:36.808Z,95.90
2023-06-17T03:20:04.837Z,95.90
2023-06-17T03:22:31.860Z,95.90
2023-06-17T03:24:58.703Z,95.90
2023-06-17T03:27:25.638Z,95.90
2023-06-17T03:29:52.421Z,95.90
2023-06-17T03:32:19.282Z,95.90
2023-06-17T03:34:47.273Z,95.90
2023-06-17T03:37:14.176Z,95.80
2023-06-17T03:39:41.024Z,95.90
2023-06-17T03:42:09.301Z,96.00
2023-06-17T03:44:36.156Z,96.00
2023-06-17T03:47:04.185Z,96.00
2023-06-17T03:49:31.122Z,96.00
2023-06-17T03:51:57.982Z,95.90
2023-06-17T03:54:24.967Z,95.90
2023-06-17T03:56:51.858Z,95.90
2023-06-17T03:59:19.012Z,96.00
2023-06-17T04:01:45.876Z,96.00
2023-06-17T04:04:12.979Z,95.90
2023-06-17T04:06:41.410Z,95.80
2023-06-17T04:09:08.403Z,95.80
2023-06-17T04:11:35.358Z,95.90
2023-06-17T04:14:02.321Z,95.90
2023-06-17T04:16:31.932Z,95.80
2023-06-17T04:18:59.651Z,95.90
2023-06-17T04:21:27.003Z,96.00
2023-06-17T04:23:54.330Z,95.90
2023-06-17T04:26:21.351Z,95.90
2023-06-17T04:28:49.505Z,96.00
2023-06-17T04:31:16.621Z,95.90
2023-06-17T04:33:43.549Z,95.90
2023-06-17T04:36:10.601Z,96.00
2023-06-17T04:38:43.454Z,96.00
2023-06-17T04:41:10.327Z,96.00
2023-06-17T04:43:39.924Z,96.10
2023-06-17T04:46:07.483Z,96.10
2023-06-17T04:48:34.904Z,96.00
2023-06-17T04:51:01.863Z,96.00
2023-06-17T04:53:28.724Z,96.10
2023-06-17T04:55:55.617Z,96.00
2023-06-17T04:58:22.750Z,95.90
2023-06-17T05:00:49.686Z,96.00
2023-06-17T05:03:16.747Z,95.90
2023-06-17T05:05:43.598Z,95.90
2023-06-17T05:08:10.552Z,95.80
2023-06-17T05:10:37.340Z,95.80
2023-06-17T05:13:04.204Z,95.70
2023-06-17T05:15:31.009Z,95.70
2023-06-17T05:17:58.002Z,95.80
2023-06-17T05:20:24.851Z,95.70
2023-06-17T05:22:51.648Z,95.60
2023-06-17T05:25:18.512Z,95.60
2023-06-17T05:27:45.321Z,95.60
2023-06-17T05:30:12.380Z,95.50
2023-06-17T05:32:39.508Z,95.40
2023-06-17T05:35:06.814Z,95.20
2023-06-17T05:37:33.975Z,95.00
2023-06-17T05:40:00.950Z,94.90
2023-06-17T05:42:27.998Z,94.80
2023-06-17T05:44:54.869Z,94.70
2023-06-17T05:47:21.847Z,94.70
2023-06-17T05:49:48.817Z,95.00
2023-06-17T05:52:15.796Z,94.70
2023-06-17T05:54:42.581Z,94.70
2023-06-17T05:57:09.545Z,94.70
2023-06-17T05:59:36.953Z,94.70
2023-06-17T06:02:04.217Z,94.70
2023-06-17T06:04:31.366Z,94.60
2023-06-17T06:06:58.203Z,94.60
2023-06-17T06:09:25.321Z,94.50
2023-06-17T06:11:52.844Z,94.50
2023-06-17T06:14:19.738Z,94.70
2023-06-17T06:16:46.714Z,94.40
2023-06-17T06:19:13.790Z,94.40
2023-06-17T06:21:40.822Z,94.30
2023-06-17T06:24:08.191Z,94.10
2023-06-17T06:26:35.265Z,94.10
2023-06-17T06:29:02.378Z,94.10
2023-06-17T06:31:31.751Z,94.10
2023-06-17T06:33:58.934Z,94.00
2023-06-17T06:36:26.300Z,93.90
2023-06-17T06:38:53.473Z,93.80
2023-06-17T06:41:20.690Z,93.80
2023-06-17T06:43:47.951Z,93.80
2023-06-17T06:46:16.336Z,93.60
2023-06-17T06:48:43.727Z,93.50
2023-06-17T06:51:10.652Z,93.30
2023-06-17T06:53:37.574Z,93.20
2023-06-17T06:56:04.596Z,93.00
2023-06-17T06:58:33.900Z,92.80
2023-06-17T07:01:00.907Z,92.70
2023-06-17T07:03:28.252Z,92.70
2023-06-17T07:05:55.165Z,92.50
2023-06-17T07:08:22.112Z,92.30
2023-06-17T07:10:49.033Z,92.10
2023-06-17T07:13:18.445Z,92.00
2023-06-17T07:15:46.369Z,91.90
2023-06-17T07:18:16.038Z,91.70
2023-06-17T07:20:43.206Z,91.60
2023-06-17T07:23:10.214Z,91.40
2023-06-17T07:25:38.162Z,91.20
2023-06-17T07:28:06.969Z,91.00
2023-06-17T07:30:34.075Z,90.90
2023-06-17T07:33:01.291Z,90.80
2023-06-17T07:35:28.275Z,90.70
2023-06-17T07:37:55.141Z,90.70
2023-06-17T07:40:22.521Z,90.60
2023-06-17T07:42:49.881Z,90.60
2023-06-17T07:45:17.056Z,90.70
2023-06-17T07:47:43.996Z,90.70
2023-06-17T07:50:11.397Z,90.70
2023-06-17T07:52:38.642Z,90.80
2023-06-17T07:55:08.369Z,90.70
2023-06-17T07:57:35.608Z,90.60
2023-06-17T08:00:02.818Z,90.50
2023-06-17T08:02:29.789Z,90.20
2023-06-17T08:04:56.778Z,90.10
2023-06-17T08:07:23.640Z,90.00
2023-06-17T08:09:50.505Z,89.60
2023-06-17T08:12:17.369Z,89.30
2023-06-17T08:14:44.339Z,89.20
2023-06-17T08:17:11.211Z,88.90
2023-06-17T08:19:38.329Z,88.90
2023-06-17T08:22:05.631Z,88.50
2023-06-17T08:24:32.712Z,88.20
2023-06-17T08:26:59.969Z,87.70
2023-06-17T08:29:27.361Z,87.80
2023-06-17T08:31:54.851Z,87.80
2023-06-17T08:34:25.217Z,88.20
2023-06-17T08:36:55.924Z,86.60
2023-06-17T08:39:23.108Z,86.40
2023-06-17T08:41:51.028Z,85.50
2023-06-17T08:44:22.739Z,85.10
2023-06-17T08:46:52.628Z,84.80
2023-06-17T08:49:20.264Z,85.60
2023-06-17T08:51:50.329Z,85.30
2023-06-17T08:54:18.196Z,85.80
2023-06-17T08:56:46.186Z,85.80
2023-06-17T08:59:13.226Z,83.30
2023-06-17T09:01:41.482Z,84.00
2023-06-17T09:04:08.778Z,83.00
2023-06-17T09:06:35.669Z,83.00
2023-06-17T09:09:02.595Z,83.80
2023-06-17T09:11:32.117Z,83.80
2023-06-17T09:14:01.298Z,84.00
2023-06-17T09:16:36.979Z,81.60
2023-06-17T09:19:10.151Z,82.70
2023-06-17T09:21:38.107Z,82.00
2023-06-17T09:24:06.862Z,82.40
2023-06-17T09:26:35.625Z,82.40
2023-06-17T09:29:07.828Z,80.60
2023-06-17T09:31:48.448Z,80.50
2023-06-17T09:34:16.208Z,77.50
2023-06-17T09:36:43.357Z,78.10
2023-06-17T09:39:12.263Z,79.70
2023-06-17T09:41:43.800Z,79.00
2023-06-17T09:44:11.772Z,79.80
2023-06-17T09:46:41.155Z,79.70
2023-06-17T09:49:17.630Z,79.00
2023-06-17T09:51:45.194Z,77.40
2023-06-17T09:54:12.109Z,76.30
2023-06-17T09:56:39.112Z,76.20
2023-06-17T09:59:08.575Z,77.30
2023-06-17T10:01:40.820Z,76.40
2023-06-17T10:04:08.701Z,77.70
2023-06-17T10:06:37.955Z,76.80
2023-06-17T10:09:07.445Z,75.60
2023-06-17T10:11:36.308Z,76.00
2023-06-17T10:14:08.256Z,76.20
2023-06-17T10:16:39.812Z,75.00
2023-06-17T10:19:09.243Z,76.40
2023-06-17T10:21:40.626Z,77.70
2023-06-17T10:24:08.990Z,78.00
2023-06-17T10:26:36.268Z,78.70
2023-06-17T10:29:08.367Z,77.40
2023-06-17T10:31:43.901Z,77.70
2023-06-17T10:34:23.679Z,77.80
2023-06-17T10:36:54.961Z,77.90
2023-06-17T10:39:21.956Z,78.10
2023-06-17T10:41:53.565Z,77.90
2023-06-17T10:44:42.708Z,79.10
2023-06-17T10:47:23.571Z,80.30
2023-06-17T10:49:52.968Z,81.30
2023-06-17T10:52:20.602Z,80.60
2023-06-17T10:54:56.793Z,80.60
2023-06-17T10:57:34.184Z,77.60
2023-06-17T11:00:11.920Z,78.80
2023-06-17T11:02:40.059Z,79.20
2023-06-17T11:05:08.324Z,79.50
2023-06-17T11:07:35.656Z,78.50
2023-06-17T11:10:03.604Z,77.70
2023-06-17T11:12:31.208Z,77.30
2023-06-17T11:15:01.504Z,77.30
2023-06-17T11:17:28.720Z,77.50
2023-06-17T11:19:56.440Z,77.40
2023-06-17T11:22:23.878Z,77.90
2023-06-17T11:24:50.798Z,79.10
2023-06-17T11:27:18.734Z,79.20
2023-06-17T11:29:48.116Z,77.50
2023-06-17T11:32:15.239Z,76.90
2023-06-17T11:34:42.765Z,76.10
2023-06-17T11:37:12.443Z,75.70
2023-06-17T11:39:40.078Z,77.50
2023-06-17T11:42:08.454Z,78.40
2023-06-17T11:44:36.418Z,78.40
2023-06-17T11:47:08.447Z,78.20
2023-06-17T11:49:36.068Z,75.70
2023-06-17T11:52:07.059Z,75.70
2023-06-17T11:54:34.199Z,75.60
2023-06-17T11:57:01.419Z,72.50
2023-06-17T11:59:29.693Z,72.30
2023-06-17T12:01:57.084Z,73.70
2023-06-17T12:04:24.585Z,74.90
2023-06-17T12:06:51.445Z,75.80
2023-06-17T12:09:18.284Z,73.60
2023-06-17T12:11:46.077Z,73.70
2023-06-17T12:14:14.039Z,74.50
2023-06-17T12:16:44.702Z,73.80
2023-06-17T12:19:21.993Z,74.20
2023-06-17T12:21:49.083Z,75.80
2023-06-17T12:24:17.027Z,75.60
2023-06-17T12:26:45.274Z,76.30
2023-06-17T12:29:24.493Z,74.30
2023-06-17T12:31:52.650Z,75.00
2023-06-17T12:34:19.590Z,75.20
2023-06-17T12:36:46.556Z,76.50
2023-06-17T12:39:13.810Z,75.90
2023-06-17T12:41:40.637Z,76.70
2023-06-17T12:44:07.504Z,76.10
2023-06-17T12:46:36.822Z,75.50
2023-06-17T12:49:04.368Z,74.80
2023-06-17T12:51:31.463Z,73.90
2023-06-17T12:53:58.366Z,74.10
2023-06-17T12:56:25.580Z,74.70
2023-06-17T12:59:14.070Z,76.30
2023-06-17T13:01:42.411Z,76.60
2023-06-17T13:04:09.742Z,74.60
2023-06-17T13:06:38.157Z,74.20
2023-06-17T13:09:05.214Z,72.50
2023-06-17T13:11:32.355Z,71.70
2023-06-17T13:13:59.290Z,73.60
2023-06-17T13:16:26.281Z,73.90
2023-06-17T13:18:54.413Z,72.60
2023-06-17T13:21:22.079Z,70.90
2023-06-17T13:23:49.589Z,72.10
2023-06-17T13:26:18.587Z,71.10
2023-06-17T13:28:45.473Z,72.80
2023-06-17T13:31:12.719Z,71.90
2023-06-17T13:33:39.501Z,72.70
2023-06-17T13:36:06.692Z,72.80
2023-06-17T13:38:33.468Z,72.50
2023-06-17T13:41:00.734Z,72.20
2023-06-17T13:43:27.765Z,73.30
2023-06-17T13:45:55.098Z,72.60
2023-06-17T13:48:22.380Z,71.80
2023-06-17T13:50:49.727Z,73.00
2023-06-17T13:53:16.988Z,71.50
2023-06-17T13:55:43.931Z,72.90
2023-06-17T13:58:11.156Z,70.50
2023-06-17T14:00:38.155Z,69.90
2023-06-17T14:03:05.094Z,70.50
2023-06-17T14:05:32.033Z,70.70
2023-06-17T14:07:59.035Z,70.20
2023-06-17T14:10:25.924Z,71.30
2023-06-17T14:12:53.023Z,71.20
2023-06-17T14:15:19.900Z,72.10
2023-06-17T14:17:46.902Z,71.10
2023-06-17T14:20:13.908Z,72.50
2023-06-17T14:22:40.737Z,71.50
2023-06-17T14:25:09.149Z,71.00
2023-06-17T14:27:40.006Z,72.20
2023-06-17T14:30:14.964Z,73.70
2023-06-17T14:32:46.721Z,73.10
2023-06-17T14:35:17.561Z,73.10
2023-06-17T14:37:46.597Z,72.50
2023-06-17T14:40:14.551Z,73.40
2023-06-17T14:42:42.038Z,72.50
2023-06-17T14:45:11.507Z,72.30
2023-06-17T14:47:42.498Z,72.80
2023-06-17T14:50:13.907Z,72.20
2023-06-17T14:52:42.589Z,71.90
2023-06-17T14:55:10.075Z,72.50
2023-06-17T14:57:37.423Z,73.70
2023-06-17T15:00:04.867Z,73.20
2023-06-17T15:02:49.225Z,72.80
2023-06-17T15:05:17.634Z,72.60
2023-06-17T15:07:44.623Z,73.70
2023-06-17T15:10:12.077Z,74.30
2023-06-17T15:12:42.858Z,74.30
2023-06-17T15:15:11.796Z,72.80
2023-06-17T15:17:39.362Z,72.50
2023-06-17T15:20:06.978Z,74.20
2023-06-17T15:22:34.001Z,73.60
2023-06-17T15:25:00.906Z,71.50
2023-06-17T15:27:27.788Z,72.50
2023-06-17T15:29:54.708Z,70.80
2023-06-17T15:32:23.389Z,70.70
2023-06-17T15:34:50.697Z,70.70
2023-06-17T15:37:17.742Z,69.40
2023-06-17T15:39:45.212Z,71.30
2023-06-17T15:42:13.066Z,71.10
2023-06-17T15:44:40.034Z,70.30
2023-06-17T15:47:07.072Z,71.60
2023-06-17T15:49:35.895Z,71.20
2023-06-17T15:52:04.151Z,70.60
2023-06-17T15:54:31.274Z,70.70
2023-06-17T15:56:58.425Z,71.60
2023-06-17T15:59:27.207Z,70.50
2023-06-17T16:01:54.510Z,71.00
2023-06-17T16:04:33.486Z,70.10
2023-06-17T16:07:05.020Z,69.20
2023-06-17T16:09:34.259Z,70.50
2023-06-17T16:12:01.739Z,70.80
2023-06-17T16:14:29.985Z,71.10
2023-06-17T16:16:57.172Z,71.40
2023-06-17T16:19:26.569Z,71.90
2023-06-17T16:21:55.132Z,71.60
2023-06-17T16:24:23.030Z,72.30
2023-06-17T16:26:50.557Z,70.50
2023-06-17T16:29:18.384Z,70.90
2023-06-17T16:31:46.070Z,69.40
2023-06-17T16:34:13.493Z,71.20
2023-06-17T16:36:40.990Z,70.50
2023-06-17T16:39:10.118Z,69.20
2023-06-17T16:41:39.074Z,70.20
2023-06-17T16:44:06.014Z,69.90
2023-06-17T16:46:32.962Z,70.50
2023-06-17T16:48:59.908Z,69.50
2023-06-17T16:51:27.149Z,72.40
2023-06-17T16:53:54.020Z,69.80
2023-06-17T16:56:20.986Z,71.30
2023-06-17T16:58:47.820Z,72.30
2023-06-17T17:01:14.787Z,72.60
2023-06-17T17:03:41.667Z,73.70
2023-06-17T17:06:09.576Z,74.00
2023-06-17T17:08:36.537Z,74.00
2023-06-17T17:11:03.665Z,74.30
2023-06-17T17:13:43.499Z,72.00
2023-06-17T17:16:14.547Z,71.90
2023-06-17T17:18:41.549Z,72.40
2023-06-17T17:21:08.434Z,71.30
2023-06-17T17:23:35.325Z,71.80
2023-06-17T17:26:02.186Z,71.40
2023-06-17T17:28:29.292Z,71.90
2023-06-17T17:30:56.412Z,72.80
2023-06-17T17:33:24.528Z,73.70
2023-06-17T17:35:51.890Z,73.10
2023-06-17T17:38:18.752Z,74.90
2023-06-17T17:40:45.753Z,75.60
2023-06-17T17:43:12.594Z,76.00
2023-06-17T17:45:39.498Z,75.70
2023-06-17T17:48:06.416Z,75.30
2023-06-17T17:50:34.443Z,74.00
2023-06-17T17:53:01.564Z,74.70
2023-06-17T17:55:28.838Z,74.50
2023-06-17T17:57:55.817Z,75.40
2023-06-17T18:00:24.533Z,75.50
2023-06-17T18:02:51.800Z,74.70
2023-06-17T18:05:18.720Z,75.90
2023-06-17T18:07:47.602Z,76.90
2023-06-17T18:10:16.682Z,77.60
2023-06-17T18:12:43.975Z,78.30
2023-06-17T18:15:12.639Z,77.90
2023-06-17T18:17:39.547Z,78.30
2023-06-17T18:20:09.601Z,77.70
2023-06-17T18:22:38.056Z,77.50
2023-06-17T18:25:06.488Z,78.00
2023-06-17T18:27:36.496Z,77.80
2023-06-17T18:30:05.176Z,78.60
2023-06-17T18:32:32.599Z,78.60
2023-06-17T18:34:59.643Z,78.50
2023-06-17T18:37:27.164Z,79.20
2023-06-17T18:39:54.065Z,79.80
2023-06-17T18:42:20.914Z,80.20
2023-06-17T18:44:48.381Z,80.80
2023-06-17T18:47:15.420Z,80.80
2023-06-17T18:49:43.049Z,81.30
2023-06-17T18:52:10.012Z,81.10
2023-06-17T18:54:36.912Z,81.90
2023-06-17T18:57:04.218Z,82.30
2023-06-17T18:59:31.668Z,82.70
2023-06-17T19:01:58.680Z,83.00
2023-06-17T19:04:25.716Z,82.90
2023-06-17T19:06:52.706Z,83.10
2023-06-17T19:09:19.700Z,83.50
2023-06-17T19:11:46.810Z,83.40
2023-06-17T19:14:13.783Z,83.80
2023-06-17T19:16:40.774Z,84.10
2023-06-17T19:19:07.686Z,84.10
2023-06-17T19:21:34.957Z,84.50
2023-06-17T19:24:01.842Z,84.70
2023-06-17T19:26:28.784Z,85.20
2023-06-17T19:28:55.752Z,85.10
2023-06-17T19:31:22.887Z,85.20
2023-06-17T19:33:49.773Z,85.40
2023-06-17T19:36:16.902Z,85.80
2023-06-17T19:38:43.994Z,86.10
2023-06-17T19:41:11.082Z,86.10
2023-06-17T19:43:38.005Z,86.30
2023-06-17T19:46:05.064Z,86.50
2023-06-17T19:48:32.504Z,86.60
2023-06-17T19:51:02.597Z,86.70
2023-06-17T19:53:29.642Z,86.80
2023-06-17T19:55:56.750Z,87.10
2023-06-17T19:58:23.862Z,87.20
2023-06-17T20:00:50.956Z,87.30
2023-06-17T20:03:18.067Z,87.50
2023-06-17T20:05:46.381Z,87.60
2023-06-17T20:08:14.530Z,87.60
2023-06-17T20:10:42.499Z,87.70
2023-06-17T20:13:09.947Z,88.10
2023-06-17T20:15:38.134Z,88.30
2023-06-17T20:18:05.609Z,88.40
2023-06-17T20:20:33.319Z,88.60
2023-06-17T20:23:00.367Z,88.70
2023-06-17T20:25:27.317Z,89.00
2023-06-17T20:27:54.254Z,89.20
2023-06-17T20:30:21.338Z,89.40
2023-06-17T20:32:48.678Z,89.60
2023-06-17T20:35:15.794Z,89.70
2023-06-17T20:37:43.528Z,90.00
2023-06-17T20:40:10.681Z,90.10
2023-06-17T20:42:38.035Z,90.10
2023-06-17T20:45:08.169Z,90.20
2023-06-17T20:47:35.197Z,90.40
2023-06-17T20:50:02.263Z,90.50
2023-06-17T20:52:29.310Z,90.50
2023-06-17T20:54:56.197Z,90.40
2023-06-17T20:57:23.011Z,90.50
2023-06-17T20:59:50.625Z,90.50
2023-06-17T21:02:18.916Z,90.60
2023-06-17T21:04:45.972Z,90.70
2023-06-17T21:07:12.843Z,90.80
2023-06-17T21:09:40.536Z,90.80
2023-06-17T21:12:07.622Z,90.80
2023-06-17T21:14:34.502Z,90.70
2023-06-17T21:17:01.444Z,90.70
2023-06-17T21:19:28.318Z,90.70
2023-06-17T21:21:55.422Z,90.90
2023-06-17T21:24:22.406Z,90.90
2023-06-17T21:26:49.285Z,91.00
2023-06-17T21:29:16.123Z,91.20
2023-06-17T21:31:43.149Z,91.10
2023-06-17T21:34:10.204Z,91.20
2023-06-17T21:36:37.070Z,91.10
2023-06-17T21:39:03.990Z,91.00
2023-06-17T21:41:30.793Z,91.00
2023-06-17T21:43:57.734Z,91.00
2023-06-17T21:46:27.716Z,91.20
2023-06-17T21:48:56.136Z,91.20
2023-06-17T21:51:23.238Z,91.30
2023-06-17T21:53:50.185Z,91.40
2023-06-17T21:56:18.029Z,91.50
2023-06-17T21:58:44.962Z,91.60
2023-06-17T22:01:11.919Z,91.50
2023-06-17T22:03:41.201Z,91.60
2023-06-17T22:06:08.799Z,91.70
2023-06-17T22:08:42.761Z,91.70
2023-06-17T22:11:12.166Z,91.60
2023-06-17T22:13:39.349Z,91.60
2023-06-17T22:16:06.492Z,91.60
2023-06-17T22:18:33.400Z,91.60
2023-06-17T22:21:00.258Z,91.60
2023-06-17T22:23:27.226Z,91.60
2023-06-17T22:25:54.132Z,91.60
2023-06-17T22:28:21.222Z,91.70
2023-06-17T22:30:48.137Z,91.70
2023-06-17T22:33:15.026Z,91.80
2023-06-17T22:35:42.128Z,91.80
2023-06-17T22:38:09.028Z,91.80
2023-06-17T22:40:35.990Z,91.80
2023-06-17T22:43:03.002Z,91.80
2023-06-17T22:45:29.878Z,91.80
2023-06-17T22:47:56.970Z,91.90
2023-06-17T22:50:24.363Z,91.90
2023-06-17T22:52:51.818Z,91.80
2023-06-17T22:55:18.780Z,91.90
2023-06-17T22:57:45.623Z,92.10
2023-06-17T23:00:13.228Z,92.10
2023-06-17T23:02:40.183Z,92.10
2023-06-17T23:05:07.458Z,92.20
2023-06-17T23:07:34.361Z,92.20
2023-06-17T23:10:01.352Z,92.20
2023-06-17T23:12:28.221Z,92.30
2023-06-17T23:14:55.039Z,92.20
2023-06-17T23:17:22.489Z,92.20
2023-06-17T23:19:49.487Z,92.30
2023-06-17T23:22:17.405Z,92.20
2023-06-17T23:24:47.510Z,92.30
2023-06-17T23:27:16.404Z,92.30
2023-06-17T23:29:43.323Z,92.40
2023-06-17T23:32:10.211Z,92.40
2023-06-17T23:34:37.381Z,92.50
2023-06-17T23:37:04.595Z,92.50
2023-06-17T23:39:31.471Z,92.50
2023-06-17T23:41:58.307Z,92.60
2023-06-17T23:44:26.105Z,92.60
2023-06-17T23:46:53.010Z,92.60
2023-06-17T23:49:19.975Z,92.70
2023-06-17T23:51:47.051Z,92.70
2023-06-17T23:54:13.963Z,92.80
2023-06-17T23:56:41.078Z,92.80
2023-06-17T23:59:08.220Z,92.80
